sensor_id;sensor_type;location;lat;lon;timestamp;P1;durP1;ratioP1;P2;durP2;ratioP2
76837;SDS011;65797;47.352;8.164;2023-11-19T00:00:42;1.63;;;1.53;;
76837;SDS011;65797;47.352;8.164;2023-11-19T00:03:09;1.83;;;1.73;;
76837;SDS011;65797;47.352;8.164;2023-11-19T00:05:36;4.60;;;1.83;;
76837;SDS011;65797;47.352;8.164;2023-11-19T00:08:02;2.30;;;2.00;;
76837;SDS011;65797;47.352;8.164;2023-11-19T00:10:27;2.17;;;1.50;;
76837;SDS011;65797;47.352;8.164;2023-11-19T00:12:53;3.67;;;1.70;;
76837;SDS011;65797;47.352;8.164;2023-11-19T00:15:19;1.70;;;1.53;;
76837;SDS011;65797;47.352;8.164;2023-11-19T00:17:45;2.30;;;1.80;;
76837;SDS011;65797;47.352;8.164;2023-11-19T00:20:12;3.30;;;2.27;;
76837;SDS011;65797;47.352;8.164;2023-11-19T00:22:41;2.30;;;2.07;;
76837;SDS011;65797;47.352;8.164;2023-11-19T00:25:07;1.73;;;1.63;;
76837;SDS011;65797;47.352;8.164;2023-11-19T00:27:34;1.50;;;1.40;;
76837;SDS011;65797;47.352;8.164;2023-11-19T00:29:59;2.97;;;1.77;;
76837;SDS011;65797;47.352;8.164;2023-11-19T00:32:25;2.37;;;1.97;;
76837;SDS011;65797;47.352;8.164;2023-11-19T00:34:51;2.30;;;2.10;;
76837;SDS011;65797;47.352;8.164;2023-11-19T00:37:17;2.30;;;2.10;;
76837;SDS011;65797;47.352;8.164;2023-11-19T00:39:43;2.80;;;1.70;;
76837;SDS011;65797;47.352;8.164;2023-11-19T00:42:09;2.40;;;1.57;;
76837;SDS011;65797;47.352;8.164;2023-11-19T00:44:35;6.77;;;2.20;;
76837;SDS011;65797;47.352;8.164;2023-11-19T00:47:01;1.80;;;1.70;;
76837;SDS011;65797;47.352;8.164;2023-11-19T00:49:27;2.50;;;1.90;;
76837;SDS011;65797;47.352;8.164;2023-11-19T00:51:53;2.40;;;2.20;;
76837;SDS011;65797;47.352;8.164;2023-11-19T00:54:19;2.20;;;1.87;;
76837;SDS011;65797;47.352;8.164;2023-11-19T00:56:45;2.77;;;2.03;;
76837;SDS011;65797;47.352;8.164;2023-11-19T00:59:10;2.57;;;1.77;;
76837;SDS011;65797;47.352;8.164;2023-11-19T01:01:36;2.33;;;1.97;;
76837;SDS011;65797;47.352;8.164;2023-11-19T01:04:02;1.83;;;1.73;;
76837;SDS011;65797;47.352;8.164;2023-11-19T01:06:28;3.07;;;2.20;;
76837;SDS011;65797;47.352;8.164;2023-11-19T01:08:55;5.33;;;2.20;;
76837;SDS011;65797;47.352;8.164;2023-11-19T01:11:22;3.87;;;2.03;;
76837;SDS011;65797;47.352;8.164;2023-11-19T01:13:48;2.70;;;2.50;;
76837;SDS011;65797;47.352;8.164;2023-11-19T01:16:14;2.90;;;2.60;;
76837;SDS011;65797;47.352;8.164;2023-11-19T01:21:16;2.67;;;2.47;;
76837;SDS011;65797;47.352;8.164;2023-11-19T01:23:42;2.17;;;2.00;;
76837;SDS011;65797;47.352;8.164;2023-11-19T01:26:08;4.83;;;2.40;;
76837;SDS011;65797;47.352;8.164;2023-11-19T01:28:38;3.27;;;2.53;;
76837;SDS011;65797;47.352;8.164;2023-11-19T01:31:05;3.00;;;2.70;;
76837;SDS011;65797;47.352;8.164;2023-11-19T01:33:33;2.67;;;2.30;;
76837;SDS011;65797;47.352;8.164;2023-11-19T01:36:01;3.00;;;2.67;;
76837;SDS011;65797;47.352;8.164;2023-11-19T01:38:26;2.80;;;2.57;;
76837;SDS011;65797;47.352;8.164;2023-11-19T01:43:46;2.90;;;2.70;;
76837;SDS011;65797;47.352;8.164;2023-11-19T01:46:12;3.60;;;2.77;;
76837;SDS011;65797;47.352;8.164;2023-11-19T01:48:42;4.27;;;2.87;;
76837;SDS011;65797;47.352;8.164;2023-11-19T01:51:10;6.33;;;2.67;;
76837;SDS011;65797;47.352;8.164;2023-11-19T01:53:41;4.30;;;2.50;;
76837;SDS011;65797;47.352;8.164;2023-11-19T01:56:09;3.03;;;2.60;;
76837;SDS011;65797;47.352;8.164;2023-11-19T01:58:36;3.37;;;2.60;;
76837;SDS011;65797;47.352;8.164;2023-11-19T02:01:04;2.60;;;2.13;;
76837;SDS011;65797;47.352;8.164;2023-11-19T02:03:33;2.40;;;2.20;;
76837;SDS011;65797;47.352;8.164;2023-11-19T02:05:59;3.13;;;2.33;;
76837;SDS011;65797;47.352;8.164;2023-11-19T02:08:25;1.90;;;1.80;;
76837;SDS011;65797;47.352;8.164;2023-11-19T02:10:51;2.17;;;1.97;;
76837;SDS011;65797;47.352;8.164;2023-11-19T02:13:18;2.17;;;1.97;;
76837;SDS011;65797;47.352;8.164;2023-11-19T02:15:44;1.83;;;1.73;;
76837;SDS011;65797;47.352;8.164;2023-11-19T02:18:19;2.20;;;2.00;;
76837;SDS011;65797;47.352;8.164;2023-11-19T02:20:52;2.30;;;2.00;;
76837;SDS011;65797;47.352;8.164;2023-11-19T02:23:27;2.27;;;1.70;;
76837;SDS011;65797;47.352;8.164;2023-11-19T02:25:57;3.57;;;1.90;;
76837;SDS011;65797;47.352;8.164;2023-11-19T02:28:31;2.27;;;2.03;;
76837;SDS011;65797;47.352;8.164;2023-11-19T02:30:58;3.20;;;2.07;;
76837;SDS011;65797;47.352;8.164;2023-11-19T02:33:24;2.90;;;2.07;;
76837;SDS011;65797;47.352;8.164;2023-11-19T02:35:50;2.30;;;2.10;;
76837;SDS011;65797;47.352;8.164;2023-11-19T02:38:16;1.97;;;1.87;;
76837;SDS011;65797;47.352;8.164;2023-11-19T02:40:42;2.80;;;1.93;;
76837;SDS011;65797;47.352;8.164;2023-11-19T02:43:07;3.20;;;1.70;;
76837;SDS011;65797;47.352;8.164;2023-11-19T02:50:52;2.30;;;2.10;;
76837;SDS011;65797;47.352;8.164;2023-11-19T02:53:21;3.10;;;2.10;;
76837;SDS011;65797;47.352;8.164;2023-11-19T03:00:58;2.73;;;2.07;;
76837;SDS011;65797;47.352;8.164;2023-11-19T03:03:26;3.60;;;2.57;;
76837;SDS011;65797;47.352;8.164;2023-11-19T03:06:04;3.63;;;2.30;;
76837;SDS011;65797;47.352;8.164;2023-11-19T03:08:30;3.00;;;2.77;;
76837;SDS011;65797;47.352;8.164;2023-11-19T03:10:59;2.33;;;2.10;;
76837;SDS011;65797;47.352;8.164;2023-11-19T03:13:24;2.73;;;2.53;;
76837;SDS011;65797;47.352;8.164;2023-11-19T03:15:56;3.70;;;2.43;;
76837;SDS011;65797;47.352;8.164;2023-11-19T03:18:22;2.60;;;2.40;;
76837;SDS011;65797;47.352;8.164;2023-11-19T03:20:54;2.67;;;2.40;;
76837;SDS011;65797;47.352;8.164;2023-11-19T03:23:20;2.90;;;2.20;;
76837;SDS011;65797;47.352;8.164;2023-11-19T03:25:46;2.23;;;2.03;;
76837;SDS011;65797;47.352;8.164;2023-11-19T03:28:15;2.50;;;2.30;;
76837;SDS011;65797;47.352;8.164;2023-11-19T03:30:41;2.67;;;2.47;;
76837;SDS011;65797;47.352;8.164;2023-11-19T03:33:07;3.03;;;2.20;;
76837;SDS011;65797;47.352;8.164;2023-11-19T03:35:33;2.27;;;2.13;;
76837;SDS011;65797;47.352;8.164;2023-11-19T03:53:31;2.30;;;2.10;;
76837;SDS011;65797;47.352;8.164;2023-11-19T03:55:57;1.50;;;1.40;;
76837;SDS011;65797;47.352;8.164;2023-11-19T03:58:28;1.60;;;1.50;;
76837;SDS011;65797;47.352;8.164;2023-11-19T04:03:32;1.67;;;1.57;;
76837;SDS011;65797;47.352;8.164;2023-11-19T04:05:58;3.30;;;1.33;;
76837;SDS011;65797;47.352;8.164;2023-11-19T04:08:27;1.50;;;1.40;;
76837;SDS011;65797;47.352;8.164;2023-11-19T04:10:53;6.63;;;1.70;;
76837;SDS011;65797;47.352;8.164;2023-11-19T04:13:18;2.17;;;1.60;;
76837;SDS011;65797;47.352;8.164;2023-11-19T04:15:45;1.53;;;1.43;;
76837;SDS011;65797;47.352;8.164;2023-11-19T04:18:10;4.70;;;1.40;;
76837;SDS011;65797;47.352;8.164;2023-11-19T04:20:36;1.60;;;1.50;;
76837;SDS011;65797;47.352;8.164;2023-11-19T04:23:02;2.93;;;1.30;;
76837;SDS011;65797;47.352;8.164;2023-11-19T04:25:27;1.87;;;1.70;;
76837;SDS011;65797;47.352;8.164;2023-11-19T04:27:53;1.70;;;1.60;;
76837;SDS011;65797;47.352;8.164;2023-11-19T04:30:19;1.40;;;1.30;;
76837;SDS011;65797;47.352;8.164;2023-11-19T04:32:47;1.93;;;1.67;;
76837;SDS011;65797;47.352;8.164;2023-11-19T04:35:13;2.13;;;1.90;;
76837;SDS011;65797;47.352;8.164;2023-11-19T04:37:39;1.90;;;1.80;;
76837;SDS011;65797;47.352;8.164;2023-11-19T04:40:06;2.93;;;1.50;;
76837;SDS011;65797;47.352;8.164;2023-11-19T04:42:32;1.87;;;1.67;;
76837;SDS011;65797;47.352;8.164;2023-11-19T04:44:58;2.07;;;1.80;;
76837;SDS011;65797;47.352;8.164;2023-11-19T04:47:24;2.80;;;1.60;;
76837;SDS011;65797;47.352;8.164;2023-11-19T04:49:49;3.47;;;1.67;;
76837;SDS011;65797;47.352;8.164;2023-11-19T04:52:19;2.27;;;2.07;;
76837;SDS011;65797;47.352;8.164;2023-11-19T04:54:45;2.13;;;1.47;;
76837;SDS011;65797;47.352;8.164;2023-11-19T04:57:13;1.57;;;1.47;;
76837;SDS011;65797;47.352;8.164;2023-11-19T04:59:39;2.17;;;1.77;;
76837;SDS011;65797;47.352;8.164;2023-11-19T05:02:05;1.97;;;1.60;;
76837;SDS011;65797;47.352;8.164;2023-11-19T05:04:31;1.83;;;1.40;;
76837;SDS011;65797;47.352;8.164;2023-11-19T05:06:56;1.83;;;1.33;;
76837;SDS011;65797;47.352;8.164;2023-11-19T05:09:22;1.50;;;1.40;;
76837;SDS011;65797;47.352;8.164;2023-11-19T05:11:48;1.73;;;1.40;;
76837;SDS011;65797;47.352;8.164;2023-11-19T05:14:14;1.83;;;1.73;;
76837;SDS011;65797;47.352;8.164;2023-11-19T05:21:51;1.40;;;1.40;;
76837;SDS011;65797;47.352;8.164;2023-11-19T05:24:18;1.83;;;1.73;;
76837;SDS011;65797;47.352;8.164;2023-11-19T05:26:44;2.20;;;1.80;;
76837;SDS011;65797;47.352;8.164;2023-11-19T05:29:10;2.50;;;2.17;;
76837;SDS011;65797;47.352;8.164;2023-11-19T05:31:35;1.23;;;1.23;;
76837;SDS011;65797;47.352;8.164;2023-11-19T05:34:01;1.60;;;1.50;;
76837;SDS011;65797;47.352;8.164;2023-11-19T05:36:27;2.07;;;1.80;;
76837;SDS011;65797;47.352;8.164;2023-11-19T05:38:54;1.70;;;1.50;;
76837;SDS011;65797;47.352;8.164;2023-11-19T05:43:55;1.73;;;1.30;;
76837;SDS011;65797;47.352;8.164;2023-11-19T05:46:21;5.33;;;1.30;;
76837;SDS011;65797;47.352;8.164;2023-11-19T05:48:47;1.63;;;1.53;;
76837;SDS011;65797;47.352;8.164;2023-11-19T05:51:13;1.83;;;1.73;;
76837;SDS011;65797;47.352;8.164;2023-11-19T05:53:40;5.80;;;1.53;;
76837;SDS011;65797;47.352;8.164;2023-11-19T05:56:06;2.13;;;1.20;;
76837;SDS011;65797;47.352;8.164;2023-11-19T05:58:34;1.40;;;1.30;;
76837;SDS011;65797;47.352;8.164;2023-11-19T06:01:01;1.60;;;1.50;;
76837;SDS011;65797;47.352;8.164;2023-11-19T06:03:29;5.00;;;1.33;;
76837;SDS011;65797;47.352;8.164;2023-11-19T06:05:55;1.17;;;0.90;;
76837;SDS011;65797;47.352;8.164;2023-11-19T06:08:21;1.23;;;1.20;;
76837;SDS011;65797;47.352;8.164;2023-11-19T06:10:47;2.60;;;1.40;;
76837;SDS011;65797;47.352;8.164;2023-11-19T06:13:15;1.20;;;1.10;;
76837;SDS011;65797;47.352;8.164;2023-11-19T06:15:41;1.37;;;1.23;;
76837;SDS011;65797;47.352;8.164;2023-11-19T06:18:08;1.27;;;1.17;;
76837;SDS011;65797;47.352;8.164;2023-11-19T06:20:35;1.00;;;1.00;;
76837;SDS011;65797;47.352;8.164;2023-11-19T06:23:00;0.80;;;0.80;;
76837;SDS011;65797;47.352;8.164;2023-11-19T06:25:26;0.93;;;0.93;;
76837;SDS011;65797;47.352;8.164;2023-11-19T06:27:52;0.97;;;0.97;;
76837;SDS011;65797;47.352;8.164;2023-11-19T06:30:18;1.30;;;1.20;;
76837;SDS011;65797;47.352;8.164;2023-11-19T06:32:45;1.10;;;1.00;;
76837;SDS011;65797;47.352;8.164;2023-11-19T06:35:12;1.67;;;1.40;;
76837;SDS011;65797;47.352;8.164;2023-11-19T06:37:39;1.57;;;1.30;;
76837;SDS011;65797;47.352;8.164;2023-11-19T06:40:06;0.80;;;0.80;;
76837;SDS011;65797;47.352;8.164;2023-11-19T06:42:34;0.90;;;0.90;;
76837;SDS011;65797;47.352;8.164;2023-11-19T06:45:00;1.20;;;1.10;;
76837;SDS011;65797;47.352;8.164;2023-11-19T06:47:27;0.93;;;0.90;;
76837;SDS011;65797;47.352;8.164;2023-11-19T06:57:39;0.90;;;0.90;;
76837;SDS011;65797;47.352;8.164;2023-11-19T07:00:05;2.20;;;1.23;;
76837;SDS011;65797;47.352;8.164;2023-11-19T07:02:40;2.87;;;0.93;;
76837;SDS011;65797;47.352;8.164;2023-11-19T07:05:07;1.10;;;1.10;;
76837;SDS011;65797;47.352;8.164;2023-11-19T07:07:33;3.63;;;1.10;;
76837;SDS011;65797;47.352;8.164;2023-11-19T07:10:00;4.37;;;1.57;;
76837;SDS011;65797;47.352;8.164;2023-11-19T07:12:27;1.07;;;1.07;;
76837;SDS011;65797;47.352;8.164;2023-11-19T07:14:53;2.20;;;1.10;;
76837;SDS011;65797;47.352;8.164;2023-11-19T07:17:20;1.00;;;1.00;;
76837;SDS011;65797;47.352;8.164;2023-11-19T07:19:46;1.27;;;1.07;;
76837;SDS011;65797;47.352;8.164;2023-11-19T07:22:12;1.90;;;1.00;;
76837;SDS011;65797;47.352;8.164;2023-11-19T07:24:39;1.40;;;1.40;;
76837;SDS011;65797;47.352;8.164;2023-11-19T07:27:06;0.97;;;0.90;;
76837;SDS011;65797;47.352;8.164;2023-11-19T07:29:33;1.70;;;1.00;;
76837;SDS011;65797;47.352;8.164;2023-11-19T07:32:00;1.40;;;0.80;;
76837;SDS011;65797;47.352;8.164;2023-11-19T07:34:27;1.23;;;1.13;;
76837;SDS011;65797;47.352;8.164;2023-11-19T07:36:54;3.07;;;1.20;;
76837;SDS011;65797;47.352;8.164;2023-11-19T07:39:22;1.53;;;1.27;;
76837;SDS011;65797;47.352;8.164;2023-11-19T07:41:48;1.33;;;1.10;;
76837;SDS011;65797;47.352;8.164;2023-11-19T07:44:14;1.30;;;1.20;;
76837;SDS011;65797;47.352;8.164;2023-11-19T07:46:40;0.90;;;0.90;;
76837;SDS011;65797;47.352;8.164;2023-11-19T07:49:07;3.70;;;1.23;;
76837;SDS011;65797;47.352;8.164;2023-11-19T07:51:34;1.70;;;1.20;;
76837;SDS011;65797;47.352;8.164;2023-11-19T07:54:01;1.00;;;1.00;;
76837;SDS011;65797;47.352;8.164;2023-11-19T07:56:26;1.20;;;1.10;;
76837;SDS011;65797;47.352;8.164;2023-11-19T07:58:52;2.93;;;1.30;;
76837;SDS011;65797;47.352;8.164;2023-11-19T08:01:18;1.50;;;1.40;;
76837;SDS011;65797;47.352;8.164;2023-11-19T08:03:44;0.83;;;0.83;;
76837;SDS011;65797;47.352;8.164;2023-11-19T08:06:09;1.20;;;1.10;;
76837;SDS011;65797;47.352;8.164;2023-11-19T08:08:35;2.50;;;1.13;;
76837;SDS011;65797;47.352;8.164;2023-11-19T08:11:03;1.50;;;1.40;;
76837;SDS011;65797;47.352;8.164;2023-11-19T08:13:30;2.00;;;0.97;;
76837;SDS011;65797;47.352;8.164;2023-11-19T08:15:56;1.00;;;1.00;;
76837;SDS011;65797;47.352;8.164;2023-11-19T08:18:23;1.33;;;0.93;;
76837;SDS011;65797;47.352;8.164;2023-11-19T08:20:49;2.40;;;1.00;;
76837;SDS011;65797;47.352;8.164;2023-11-19T08:23:18;0.70;;;0.70;;
76837;SDS011;65797;47.352;8.164;2023-11-19T08:25:44;0.90;;;0.90;;
76837;SDS011;65797;47.352;8.164;2023-11-19T08:28:10;1.03;;;1.03;;
76837;SDS011;65797;47.352;8.164;2023-11-19T08:30:36;3.30;;;1.37;;
76837;SDS011;65797;47.352;8.164;2023-11-19T08:33:02;1.00;;;1.00;;
76837;SDS011;65797;47.352;8.164;2023-11-19T08:35:28;2.20;;;0.83;;
76837;SDS011;65797;47.352;8.164;2023-11-19T08:37:54;1.87;;;1.10;;
76837;SDS011;65797;47.352;8.164;2023-11-19T08:40:20;1.53;;;0.90;;
76837;SDS011;65797;47.352;8.164;2023-11-19T08:42:46;2.40;;;1.60;;
76837;SDS011;65797;47.352;8.164;2023-11-19T08:45:12;4.33;;;1.20;;
76837;SDS011;65797;47.352;8.164;2023-11-19T08:47:38;0.80;;;0.80;;
76837;SDS011;65797;47.352;8.164;2023-11-19T08:50:05;1.20;;;1.00;;
76837;SDS011;65797;47.352;8.164;2023-11-19T08:52:31;2.50;;;0.80;;
76837;SDS011;65797;47.352;8.164;2023-11-19T08:54:57;0.90;;;0.90;;
76837;SDS011;65797;47.352;8.164;2023-11-19T08:57:22;0.80;;;0.80;;
76837;SDS011;65797;47.352;8.164;2023-11-19T08:59:49;1.00;;;0.80;;
76837;SDS011;65797;47.352;8.164;2023-11-19T09:02:15;1.13;;;1.03;;
76837;SDS011;65797;47.352;8.164;2023-11-19T09:04:41;1.90;;;1.00;;
76837;SDS011;65797;47.352;8.164;2023-11-19T09:07:07;1.20;;;1.20;;
76837;SDS011;65797;47.352;8.164;2023-11-19T09:09:34;0.90;;;0.90;;
76837;SDS011;65797;47.352;8.164;2023-11-19T09:12:01;1.20;;;1.10;;
76837;SDS011;65797;47.352;8.164;2023-11-19T09:14:28;2.10;;;1.40;;
76837;SDS011;65797;47.352;8.164;2023-11-19T09:16:55;1.47;;;1.10;;
76837;SDS011;65797;47.352;8.164;2023-11-19T09:19:21;1.93;;;1.17;;
76837;SDS011;65797;47.352;8.164;2023-11-19T09:21:47;1.60;;;1.47;;
76837;SDS011;65797;47.352;8.164;2023-11-19T09:24:15;1.20;;;1.07;;
76837;SDS011;65797;47.352;8.164;2023-11-19T09:26:41;4.10;;;0.90;;
76837;SDS011;65797;47.352;8.164;2023-11-19T09:29:13;1.00;;;0.93;;
76837;SDS011;65797;47.352;8.164;2023-11-19T09:31:41;2.20;;;1.37;;
76837;SDS011;65797;47.352;8.164;2023-11-19T09:34:07;2.70;;;2.07;;
76837;SDS011;65797;47.352;8.164;2023-11-19T09:36:33;1.40;;;1.03;;
76837;SDS011;65797;47.352;8.164;2023-11-19T09:38:58;2.13;;;1.27;;
76837;SDS011;65797;47.352;8.164;2023-11-19T09:41:27;1.63;;;1.50;;
76837;SDS011;65797;47.352;8.164;2023-11-19T09:43:54;1.30;;;1.30;;
76837;SDS011;65797;47.352;8.164;2023-11-19T09:46:20;3.00;;;1.83;;
76837;SDS011;65797;47.352;8.164;2023-11-19T09:48:52;1.07;;;0.97;;
76837;SDS011;65797;47.352;8.164;2023-11-19T09:51:21;2.63;;;1.20;;
76837;SDS011;65797;47.352;8.164;2023-11-19T09:53:47;2.80;;;1.20;;
76837;SDS011;65797;47.352;8.164;2023-11-19T09:56:14;0.93;;;0.90;;
76837;SDS011;65797;47.352;8.164;2023-11-19T09:58:42;1.60;;;1.30;;
76837;SDS011;65797;47.352;8.164;2023-11-19T10:01:08;2.00;;;1.20;;
76837;SDS011;65797;47.352;8.164;2023-11-19T10:03:36;1.80;;;1.30;;
76837;SDS011;65797;47.352;8.164;2023-11-19T10:06:03;2.70;;;1.40;;
76837;SDS011;65797;47.352;8.164;2023-11-19T10:08:29;2.10;;;1.00;;
76837;SDS011;65797;47.352;8.164;2023-11-19T10:10:58;1.77;;;1.20;;
76837;SDS011;65797;47.352;8.164;2023-11-19T10:13:27;1.57;;;1.00;;
76837;SDS011;65797;47.352;8.164;2023-11-19T10:15:55;1.20;;;1.10;;
76837;SDS011;65797;47.352;8.164;2023-11-19T10:18:25;1.13;;;1.13;;
76837;SDS011;65797;47.352;8.164;2023-11-19T10:20:51;2.93;;;1.03;;
76837;SDS011;65797;47.352;8.164;2023-11-19T10:23:20;2.10;;;0.90;;
76837;SDS011;65797;47.352;8.164;2023-11-19T10:25:46;0.90;;;0.90;;
76837;SDS011;65797;47.352;8.164;2023-11-19T10:28:12;0.80;;;0.80;;
76837;SDS011;65797;47.352;8.164;2023-11-19T10:30:41;3.03;;;1.27;;
76837;SDS011;65797;47.352;8.164;2023-11-19T10:38:21;1.63;;;1.43;;
76837;SDS011;65797;47.352;8.164;2023-11-19T10:40:51;0.87;;;0.87;;
76837;SDS011;65797;47.352;8.164;2023-11-19T10:43:20;1.87;;;1.30;;
76837;SDS011;65797;47.352;8.164;2023-11-19T10:45:50;3.00;;;0.93;;
76837;SDS011;65797;47.352;8.164;2023-11-19T10:48:16;2.07;;;1.40;;
76837;SDS011;65797;47.352;8.164;2023-11-19T10:50:43;2.63;;;1.00;;
76837;SDS011;65797;47.352;8.164;2023-11-19T10:53:12;1.50;;;1.40;;
76837;SDS011;65797;47.352;8.164;2023-11-19T10:55:38;1.27;;;1.10;;
76837;SDS011;65797;47.352;8.164;2023-11-19T10:58:05;1.57;;;1.27;;
76837;SDS011;65797;47.352;8.164;2023-11-19T11:03:29;2.20;;;1.27;;
76837;SDS011;65797;47.352;8.164;2023-11-19T11:06:06;2.00;;;1.60;;
76837;SDS011;65797;47.352;8.164;2023-11-19T11:08:35;1.33;;;1.10;;
76837;SDS011;65797;47.352;8.164;2023-11-19T11:11:04;1.03;;;1.03;;
76837;SDS011;65797;47.352;8.164;2023-11-19T11:13:31;4.20;;;1.67;;
76837;SDS011;65797;47.352;8.164;2023-11-19T11:15:59;1.00;;;1.00;;
76837;SDS011;65797;47.352;8.164;2023-11-19T11:18:25;1.20;;;1.10;;
76837;SDS011;65797;47.352;8.164;2023-11-19T11:29:16;1.47;;;1.37;;
76837;SDS011;65797;47.352;8.164;2023-11-19T11:37:50;1.53;;;1.43;;
76837;SDS011;65797;47.352;8.164;2023-11-19T11:40:24;3.43;;;2.33;;
76837;SDS011;65797;47.352;8.164;2023-11-19T11:42:51;2.30;;;2.10;;
76837;SDS011;65797;47.352;8.164;2023-11-19T11:45:18;1.43;;;1.33;;
76837;SDS011;65797;47.352;8.164;2023-11-19T11:50:20;8.90;;;1.93;;
76837;SDS011;65797;47.352;8.164;2023-11-19T11:55:24;1.83;;;1.57;;
76837;SDS011;65797;47.352;8.164;2023-11-19T11:57:51;2.83;;;1.60;;
76837;SDS011;65797;47.352;8.164;2023-11-19T12:00:30;6.43;;;1.20;;
76837;SDS011;65797;47.352;8.164;2023-11-19T12:02:57;1.23;;;1.23;;
76837;SDS011;65797;47.352;8.164;2023-11-19T12:05:25;5.80;;;1.60;;
76837;SDS011;65797;47.352;8.164;2023-11-19T12:08:02;1.50;;;1.40;;
76837;SDS011;65797;47.352;8.164;2023-11-19T12:10:45;1.10;;;1.10;;
76837;SDS011;65797;47.352;8.164;2023-11-19T12:13:18;1.60;;;1.50;;
76837;SDS011;65797;47.352;8.164;2023-11-19T12:18:27;3.10;;;1.37;;
76837;SDS011;65797;47.352;8.164;2023-11-19T12:20:53;1.43;;;1.30;;
76837;SDS011;65797;47.352;8.164;2023-11-19T12:23:21;1.93;;;1.40;;
76837;SDS011;65797;47.352;8.164;2023-11-19T12:25:51;2.57;;;1.60;;
76837;SDS011;65797;47.352;8.164;2023-11-19T12:28:17;2.60;;;1.50;;
76837;SDS011;65797;47.352;8.164;2023-11-19T12:30:44;1.77;;;1.40;;
76837;SDS011;65797;47.352;8.164;2023-11-19T12:33:11;1.67;;;1.57;;
76837;SDS011;65797;47.352;8.164;2023-11-19T12:35:41;1.40;;;1.30;;
76837;SDS011;65797;47.352;8.164;2023-11-19T12:38:08;1.33;;;1.03;;
76837;SDS011;65797;47.352;8.164;2023-11-19T12:40:43;1.50;;;1.40;;
76837;SDS011;65797;47.352;8.164;2023-11-19T12:43:09;1.23;;;1.17;;
76837;SDS011;65797;47.352;8.164;2023-11-19T12:45:35;1.60;;;1.50;;
76837;SDS011;65797;47.352;8.164;2023-11-19T12:48:04;2.80;;;1.50;;
76837;SDS011;65797;47.352;8.164;2023-11-19T12:53:17;1.23;;;1.13;;
76837;SDS011;65797;47.352;8.164;2023-11-19T12:55:43;3.90;;;1.13;;
76837;SDS011;65797;47.352;8.164;2023-11-19T12:58:09;1.17;;;1.07;;
76837;SDS011;65797;47.352;8.164;2023-11-19T13:00:34;1.30;;;1.20;;
76837;SDS011;65797;47.352;8.164;2023-11-19T13:03:00;1.30;;;0.80;;
76837;SDS011;65797;47.352;8.164;2023-11-19T13:05:30;1.47;;;1.37;;
76837;SDS011;65797;47.352;8.164;2023-11-19T13:08:01;1.23;;;0.97;;
76837;SDS011;65797;47.352;8.164;2023-11-19T13:10:29;6.50;;;1.07;;
76837;SDS011;65797;47.352;8.164;2023-11-19T13:12:59;1.60;;;1.30;;
76837;SDS011;65797;47.352;8.164;2023-11-19T13:18:09;5.30;;;1.63;;
76837;SDS011;65797;47.352;8.164;2023-11-19T13:20:35;1.70;;;1.03;;
76837;SDS011;65797;47.352;8.164;2023-11-19T13:23:02;2.50;;;1.60;;
76837;SDS011;65797;47.352;8.164;2023-11-19T13:25:29;8.03;;;1.07;;
76837;SDS011;65797;47.352;8.164;2023-11-19T13:27:56;1.63;;;1.53;;
76837;SDS011;65797;47.352;8.164;2023-11-19T13:30:23;1.00;;;1.00;;
76837;SDS011;65797;47.352;8.164;2023-11-19T13:32:49;1.07;;;0.97;;
76837;SDS011;65797;47.352;8.164;2023-11-19T13:35:16;1.30;;;1.20;;
76837;SDS011;65797;47.352;8.164;2023-11-19T13:37:42;1.13;;;1.10;;
76837;SDS011;65797;47.352;8.164;2023-11-19T13:40:08;0.90;;;0.90;;
76837;SDS011;65797;47.352;8.164;2023-11-19T13:42:38;3.33;;;1.07;;
76837;SDS011;65797;47.352;8.164;2023-11-19T13:45:10;1.27;;;0.83;;
76837;SDS011;65797;47.352;8.164;2023-11-19T13:50:10;1.23;;;1.17;;
76837;SDS011;65797;47.352;8.164;2023-11-19T13:52:41;1.00;;;1.00;;
76837;SDS011;65797;47.352;8.164;2023-11-19T13:55:08;1.53;;;1.00;;
76837;SDS011;65797;47.352;8.164;2023-11-19T13:57:36;1.20;;;1.03;;
76837;SDS011;65797;47.352;8.164;2023-11-19T14:00:08;1.10;;;1.03;;
76837;SDS011;65797;47.352;8.164;2023-11-19T14:02:42;1.20;;;1.10;;
76837;SDS011;65797;47.352;8.164;2023-11-19T14:05:11;1.30;;;1.20;;
76837;SDS011;65797;47.352;8.164;2023-11-19T14:07:38;0.90;;;0.90;;
76837;SDS011;65797;47.352;8.164;2023-11-19T14:10:04;3.03;;;1.53;;
76837;SDS011;65797;47.352;8.164;2023-11-19T14:12:32;1.43;;;1.10;;
76837;SDS011;65797;47.352;8.164;2023-11-19T14:14:58;0.90;;;0.90;;
76837;SDS011;65797;47.352;8.164;2023-11-19T14:17:25;3.17;;;1.30;;
76837;SDS011;65797;47.352;8.164;2023-11-19T14:19:51;1.10;;;1.00;;
76837;SDS011;65797;47.352;8.164;2023-11-19T14:22:17;2.10;;;1.20;;
76837;SDS011;65797;47.352;8.164;2023-11-19T14:24:43;1.17;;;1.17;;
76837;SDS011;65797;47.352;8.164;2023-11-19T14:27:10;0.90;;;0.90;;
76837;SDS011;65797;47.352;8.164;2023-11-19T14:29:36;0.90;;;0.90;;
76837;SDS011;65797;47.352;8.164;2023-11-19T14:32:02;1.13;;;1.13;;
76837;SDS011;65797;47.352;8.164;2023-11-19T14:34:31;1.43;;;1.03;;
76837;SDS011;65797;47.352;8.164;2023-11-19T14:36:57;1.83;;;1.07;;
76837;SDS011;65797;47.352;8.164;2023-11-19T14:39:23;1.20;;;1.10;;
76837;SDS011;65797;47.352;8.164;2023-11-19T14:41:49;1.37;;;1.00;;
76837;SDS011;65797;47.352;8.164;2023-11-19T14:44:16;1.70;;;1.10;;
76837;SDS011;65797;47.352;8.164;2023-11-19T14:46:42;1.90;;;1.07;;
76837;SDS011;65797;47.352;8.164;2023-11-19T14:49:07;1.10;;;1.00;;
76837;SDS011;65797;47.352;8.164;2023-11-19T14:51:39;1.07;;;0.97;;
76837;SDS011;65797;47.352;8.164;2023-11-19T14:54:05;2.50;;;1.20;;
76837;SDS011;65797;47.352;8.164;2023-11-19T14:56:31;1.07;;;0.97;;
76837;SDS011;65797;47.352;8.164;2023-11-19T14:58:57;3.03;;;1.20;;
76837;SDS011;65797;47.352;8.164;2023-11-19T15:01:23;1.47;;;1.00;;
76837;SDS011;65797;47.352;8.164;2023-11-19T15:03:49;1.47;;;1.27;;
76837;SDS011;65797;47.352;8.164;2023-11-19T15:06:15;1.13;;;1.03;;
76837;SDS011;65797;47.352;8.164;2023-11-19T15:08:41;2.80;;;2.20;;
76837;SDS011;65797;47.352;8.164;2023-11-19T15:11:07;1.77;;;1.67;;
76837;SDS011;65797;47.352;8.164;2023-11-19T15:13:34;1.20;;;1.20;;
76837;SDS011;65797;47.352;8.164;2023-11-19T15:16:02;1.60;;;1.50;;
76837;SDS011;65797;47.352;8.164;2023-11-19T15:18:30;1.60;;;1.50;;
76837;SDS011;65797;47.352;8.164;2023-11-19T15:20:56;1.30;;;1.20;;
76837;SDS011;65797;47.352;8.164;2023-11-19T15:23:22;0.87;;;0.87;;
76837;SDS011;65797;47.352;8.164;2023-11-19T15:25:48;0.87;;;0.87;;
76837;SDS011;65797;47.352;8.164;2023-11-19T15:28:14;5.40;;;0.90;;
76837;SDS011;65797;47.352;8.164;2023-11-19T15:30:40;1.13;;;0.90;;
76837;SDS011;65797;47.352;8.164;2023-11-19T15:33:06;1.27;;;0.90;;
76837;SDS011;65797;47.352;8.164;2023-11-19T15:35:33;0.80;;;0.80;;
76837;SDS011;65797;47.352;8.164;2023-11-19T15:37:59;0.70;;;0.70;;
76837;SDS011;65797;47.352;8.164;2023-11-19T15:40:25;0.70;;;0.70;;
76837;SDS011;65797;47.352;8.164;2023-11-19T15:42:52;0.80;;;0.80;;
76837;SDS011;65797;47.352;8.164;2023-11-19T15:45:20;0.77;;;0.77;;
76837;SDS011;65797;47.352;8.164;2023-11-19T15:47:45;1.00;;;0.70;;
76837;SDS011;65797;47.352;8.164;2023-11-19T19:54:32;2.20;;;1.97;;
76837;SDS011;65797;47.352;8.164;2023-11-19T19:59:35;2.03;;;1.83;;
76837;SDS011;65797;47.352;8.164;2023-11-19T20:02:01;1.87;;;1.60;;
76837;SDS011;65797;47.352;8.164;2023-11-19T20:04:27;1.67;;;1.50;;
76837;SDS011;65797;47.352;8.164;2023-11-19T20:06:52;3.00;;;1.60;;
76837;SDS011;65797;47.352;8.164;2023-11-19T20:09:18;6.33;;;1.47;;
76837;SDS011;65797;47.352;8.164;2023-11-19T20:11:44;2.67;;;1.80;;
76837;SDS011;65797;47.352;8.164;2023-11-19T20:14:12;3.20;;;1.73;;
76837;SDS011;65797;47.352;8.164;2023-11-19T20:16:39;1.70;;;1.60;;
76837;SDS011;65797;47.352;8.164;2023-11-19T20:19:05;2.30;;;1.50;;
76837;SDS011;65797;47.352;8.164;2023-11-19T20:21:30;5.73;;;2.47;;